createdAt,value
2019-01-26T00:00:08.287Z,-1.56
2019-01-26T00:05:08.247Z,-1.5
2019-01-26T00:10:08.320Z,-1.44
2019-01-26T00:15:08.252Z,-1.5
2019-01-26T00:20:08.265Z,-1.44
2019-01-26T00:25:08.291Z,-1.38
2019-01-26T00:30:08.243Z,-1.31
2019-01-26T00:35:08.305Z,-1.25
2019-01-26T00:40:08.304Z,-1.19
2019-01-26T00:45:08.279Z,-1.06
2019-01-26T00:50:08.280Z,-1
2019-01-26T00:55:08.300Z,-0.94
2019-01-26T01:00:08.338Z,-0.88
2019-01-26T01:05:08.403Z,-0.81
2019-01-26T01:10:08.320Z,-0.81
2019-01-26T01:15:08.275Z,-0.75
2019-01-26T01:20:08.265Z,-0.69
2019-01-26T01:25:08.293Z,-0.69
2019-01-26T01:30:08.267Z,-0.69
2019-01-26T01:35:08.272Z,-0.69
2019-01-26T01:40:08.292Z,-0.75
2019-01-26T01:45:08.270Z,-0.81
2019-01-26T01:50:08.314Z,-0.88
2019-01-26T01:55:08.262Z,-1
2019-01-26T02:00:08.298Z,-1
2019-01-26T02:05:08.265Z,-1.06
2019-01-26T02:10:08.283Z,-1.06
2019-01-26T02:15:08.296Z,-1
2019-01-26T02:20:08.263Z,-1
2019-01-26T02:25:08.270Z,-1
2019-01-26T02:30:08.298Z,-0.94
2019-01-26T02:35:08.265Z,-0.94
2019-01-26T02:40:08.266Z,-0.94
2019-01-26T02:45:08.285Z,-0.88
2019-01-26T02:50:08.267Z,-0.88
2019-01-26T02:55:08.262Z,-0.81
2019-01-26T03:00:08.290Z,-0.81
2019-01-26T03:05:08.257Z,-0.81
2019-01-26T03:10:08.264Z,-0.75
2019-01-26T03:15:08.291Z,-0.75
2019-01-26T03:20:08.269Z,-0.75
2019-01-26T03:25:08.328Z,-0.75
2019-01-26T03:30:08.273Z,-0.69
2019-01-26T03:35:08.295Z,-0.63
2019-01-26T03:40:08.254Z,-0.69
2019-01-26T03:45:08.256Z,-0.63
2019-01-26T03:50:08.286Z,-0.63
2019-01-26T03:55:08.251Z,-0.56
2019-01-26T04:00:08.251Z,-0.5
2019-01-26T04:05:08.280Z,-0.44
2019-01-26T04:10:08.257Z,-0.44
2019-01-26T04:15:08.255Z,-0.38
2019-01-26T04:20:08.291Z,-0.38
2019-01-26T04:25:08.259Z,-0.31
2019-01-26T04:30:08.249Z,-0.31
2019-01-26T04:35:08.298Z,-0.25
2019-01-26T04:40:08.248Z,-0.25
2019-01-26T04:45:08.269Z,-0.19
2019-01-26T04:50:08.293Z,-0.13
2019-01-26T04:55:08.248Z,-0.06
2019-01-26T05:00:08.250Z,-0.06
2019-01-26T05:05:08.312Z,-0.06
2019-01-26T05:10:08.251Z,0
2019-01-26T05:15:08.260Z,0.06
2019-01-26T05:20:08.277Z,0.06
2019-01-26T05:25:08.250Z,0.13
2019-01-26T05:30:08.252Z,0.13
2019-01-26T05:35:08.279Z,0.25
2019-01-26T05:40:08.252Z,0.25
2019-01-26T05:45:08.253Z,0.25
2019-01-26T05:50:08.290Z,0.31
2019-01-26T05:55:08.250Z,0.31
2019-01-26T06:00:08.241Z,0.38
2019-01-26T06:05:08.281Z,0.38
2019-01-26T06:10:08.243Z,0.44
2019-01-26T06:15:08.250Z,0.44
2019-01-26T06:20:08.276Z,0.44
2019-01-26T06:25:08.253Z,0.44
2019-01-26T06:30:08.244Z,0.5
2019-01-26T06:35:08.302Z,0.5
2019-01-26T06:40:08.244Z,0.44
2019-01-26T06:45:08.314Z,0.44
2019-01-26T06:50:08.280Z,0.44
2019-01-26T06:55:08.247Z,0.38
2019-01-26T07:00:08.242Z,0.38
2019-01-26T07:05:08.273Z,0.44
2019-01-26T07:10:08.294Z,0.44
2019-01-26T07:15:08.240Z,0.44
2019-01-26T07:20:08.272Z,0.44
2019-01-26T07:25:08.533Z,0.5
2019-01-26T07:30:08.519Z,0.56
2019-01-26T07:35:08.317Z,0.63
2019-01-26T07:40:08.646Z,0.63
2019-01-26T07:45:08.339Z,0.75
2019-01-26T07:50:08.878Z,0.81
2019-01-26T07:55:08.726Z,0.81
2019-01-26T08:00:08.753Z,0.88
2019-01-26T08:05:09.141Z,0.94
2019-01-26T08:10:08.769Z,1
2019-01-26T08:15:08.978Z,1.06
2019-01-26T08:20:09.223Z,1.13
2019-01-26T08:25:09.346Z,1.19
2019-01-26T08:30:09.885Z,1.25
2019-01-26T08:35:08.921Z,1.31
2019-01-26T08:40:08.528Z,1.38
2019-01-26T08:45:08.890Z,1.38
2019-01-26T08:50:08.796Z,1.44
2019-01-26T08:55:08.954Z,1.5
2019-01-26T09:00:08.534Z,1.56
2019-01-26T09:05:08.568Z,2.06
2019-01-26T09:10:09.302Z,2.13
2019-01-26T09:15:08.850Z,2
2019-01-26T09:20:08.595Z,1.81
2019-01-26T09:25:09.367Z,1.75
2019-01-26T09:30:09.012Z,1.69
2019-01-26T09:35:08.962Z,1.75
2019-01-26T09:40:09.356Z,1.69
2019-01-26T09:45:08.986Z,1.69
2019-01-26T09:50:08.973Z,1.75
2019-01-26T09:55:09.383Z,1.81
2019-01-26T10:00:09.335Z,1.88
2019-01-26T10:05:08.978Z,1.88
2019-01-26T10:10:08.946Z,1.88
2019-01-26T10:15:08.915Z,1.88
2019-01-26T10:20:09.014Z,1.88
2019-01-26T10:25:09.002Z,1.94
2019-01-26T10:30:09.012Z,1.94
2019-01-26T10:35:08.589Z,1.94
2019-01-26T10:40:08.998Z,1.94
2019-01-26T10:45:09.286Z,1.94
2019-01-26T10:50:09.022Z,1.94
2019-01-26T10:55:08.890Z,1.94
2019-01-26T11:00:09.012Z,1.94
2019-01-26T11:05:08.746Z,2.06
2019-01-26T11:10:08.589Z,2.13
2019-01-26T11:15:09.371Z,2.25
2019-01-26T11:20:09.016Z,2.19
2019-01-26T11:25:09.056Z,2.19
2019-01-26T11:30:09.071Z,2.13
2019-01-26T11:35:09.028Z,2.13
2019-01-26T11:40:08.659Z,2.13
2019-01-26T11:45:09.083Z,2.19
2019-01-26T11:50:09.087Z,2.19
2019-01-26T11:55:09.109Z,2.25
2019-01-26T12:00:09.087Z,2.31
2019-01-26T12:05:09.063Z,2.31
2019-01-26T12:10:09.074Z,2.38
2019-01-26T12:15:09.126Z,2.5
2019-01-26T12:20:09.508Z,2.56
2019-01-26T12:25:09.033Z,2.69
2019-01-26T12:30:08.696Z,2.75
2019-01-26T12:35:09.120Z,2.88
2019-01-26T12:40:08.674Z,2.94
2019-01-26T12:45:08.680Z,3.13
2019-01-26T12:50:09.205Z,3.25
2019-01-26T12:55:09.120Z,3.38
2019-01-26T13:00:09.649Z,3.5
2019-01-26T13:05:10.095Z,3.5
2019-01-26T13:10:09.124Z,3.56
2019-01-26T13:15:15.156Z,3.63
2019-01-26T13:20:09.113Z,3.63
2019-01-26T13:25:09.168Z,3.63
2019-01-26T13:30:09.128Z,3.63
2019-01-26T13:35:09.689Z,3.63
2019-01-26T13:40:10.330Z,3.69
2019-01-26T13:45:08.690Z,3.75
2019-01-26T13:50:09.159Z,3.75
2019-01-26T13:55:09.141Z,3.75
2019-01-26T14:00:09.138Z,3.81
2019-01-26T14:05:09.130Z,3.81
2019-01-26T14:10:09.585Z,3.81
2019-01-26T14:15:08.713Z,3.88
2019-01-26T14:20:09.147Z,3.88
2019-01-26T14:25:09.524Z,3.88
2019-01-26T14:30:08.663Z,3.88
2019-01-26T14:35:08.715Z,3.88
2019-01-26T14:40:09.148Z,3.88
2019-01-26T14:45:08.706Z,4
2019-01-26T14:50:08.724Z,4
2019-01-26T14:55:08.713Z,4
2019-01-26T15:00:09.176Z,4
2019-01-26T15:05:08.723Z,4
2019-01-26T15:10:09.110Z,4
2019-01-26T15:15:10.101Z,4
2019-01-26T15:20:09.052Z,4
2019-01-26T15:25:09.105Z,4
2019-01-26T15:30:09.491Z,4
2019-01-26T15:35:09.186Z,4
2019-01-26T15:40:09.157Z,4
2019-01-26T15:45:09.526Z,4.06
2019-01-26T15:50:12.959Z,4.06
2019-01-26T15:55:09.146Z,4.06
2019-01-26T16:00:09.171Z,4.06
2019-01-26T16:05:08.678Z,4.06
2019-01-26T16:10:09.183Z,4.06
2019-01-26T16:15:09.876Z,4.06
2019-01-26T16:20:08.749Z,4.06
2019-01-26T16:25:08.725Z,4.06
2019-01-26T16:30:09.158Z,4.06
2019-01-26T16:35:09.587Z,4.13
2019-01-26T16:40:09.111Z,4.19
2019-01-26T16:45:09.082Z,4.19
2019-01-26T16:50:09.643Z,4.19
2019-01-26T16:55:09.161Z,4.19
2019-01-26T17:00:08.701Z,4.19
2019-01-26T17:05:09.546Z,4.19
2019-01-26T17:10:08.711Z,4.25
2019-01-26T17:15:08.765Z,4.31
2019-01-26T17:20:09.190Z,4.38
2019-01-26T17:25:09.196Z,4.38
2019-01-26T17:30:08.694Z,4.44
2019-01-26T17:35:09.201Z,4.44
2019-01-26T17:40:09.191Z,4.44
2019-01-26T17:45:09.142Z,4.38
2019-01-26T17:50:09.627Z,4.44
2019-01-26T17:55:09.200Z,4.44
2019-01-26T18:00:09.139Z,4.44
2019-01-26T18:05:09.609Z,4.38
2019-01-26T18:10:09.319Z,4.31
2019-01-26T18:15:09.137Z,4.31
2019-01-26T18:20:09.670Z,4.31
2019-01-26T18:25:09.227Z,4.31
2019-01-26T18:30:09.284Z,4.31
2019-01-26T18:35:10.641Z,4.31
2019-01-26T18:40:09.233Z,4.31
2019-01-26T18:45:09.174Z,4.38
2019-01-26T18:50:09.668Z,4.38
2019-01-26T18:55:09.265Z,4.44
2019-01-26T19:00:09.222Z,4.44
2019-01-26T19:05:09.702Z,4.5
2019-01-26T19:10:09.272Z,4.56
2019-01-26T19:15:09.266Z,4.56
2019-01-26T19:20:09.644Z,4.69
2019-01-26T19:25:09.254Z,4.69
2019-01-26T19:30:08.755Z,4.69
2019-01-26T19:35:09.659Z,4.69
2019-01-26T19:40:09.262Z,4.69
2019-01-26T19:45:09.272Z,4.69
2019-01-26T19:50:09.212Z,4.69
2019-01-26T19:55:09.306Z,4.56
2019-01-26T20:00:09.211Z,4.56
2019-01-26T20:05:09.693Z,4.63
2019-01-26T20:10:09.282Z,4.56
2019-01-26T20:15:08.403Z,4.56
2019-01-26T20:20:08.484Z,4.5
2019-01-26T20:25:08.424Z,4.44
2019-01-26T20:30:08.472Z,4.44
2019-01-26T20:35:08.434Z,4.38
2019-01-26T20:40:08.448Z,4.31
2019-01-26T20:45:08.555Z,4.25
2019-01-26T20:50:08.432Z,4.13
2019-01-26T20:55:08.433Z,4.13
2019-01-26T21:00:08.498Z,4.13
2019-01-26T21:05:08.700Z,4.06
2019-01-26T21:10:08.475Z,4.06
2019-01-26T21:15:08.506Z,4.06
2019-01-26T21:20:08.482Z,4.06
2019-01-26T21:25:08.476Z,4.06
2019-01-26T21:30:08.456Z,4.06
2019-01-26T21:35:08.460Z,4
2019-01-26T21:40:08.759Z,3.88
2019-01-26T21:45:08.444Z,3.88
2019-01-26T21:50:08.444Z,3.75
2019-01-26T21:55:08.492Z,3.69
2019-01-26T22:00:08.410Z,3.69
2019-01-26T22:05:08.410Z,3.63
2019-01-26T22:10:08.459Z,3.63
2019-01-26T22:15:08.459Z,3.56
2019-01-26T22:20:08.494Z,3.56
2019-01-26T22:25:08.434Z,3.63
2019-01-26T22:30:08.423Z,3.69
2019-01-26T22:35:08.475Z,3.69
2019-01-26T22:40:08.510Z,3.63
2019-01-26T22:45:08.461Z,3.56
2019-01-26T22:50:08.464Z,3.5
2019-01-26T22:55:08.478Z,3.56
2019-01-26T23:00:08.546Z,3.63
2019-01-26T23:05:08.513Z,3.63
2019-01-26T23:10:08.516Z,3.69
2019-01-26T23:15:08.521Z,3.69
2019-01-26T23:20:08.637Z,3.75
2019-01-26T23:25:08.575Z,3.75
2019-01-26T23:30:08.555Z,3.69
2019-01-26T23:35:08.633Z,3.69
2019-01-26T23:40:08.517Z,3.56
2019-01-26T23:45:08.527Z,3.56
2019-01-26T23:50:08.578Z,3.56
2019-01-26T23:55:08.454Z,3.5
